This is the latest recevied weather packets stored in our database for station/object WMKM. If no packets are shown the sender has not sent any weather packets the latest 10 day(s).
| Time | Temp. | Humidity | Pressure | Rain* | Wind** | Luminosity | Snow |
|---|---|---|---|---|---|---|---|
| 1777630244 | 25° C | 88% | 1007 hPa | - | - | - | - |
| 1777626655 | 25° C | 88% | 1009 hPa | - | - | - | - |
| 1777623039 | 26.67° C | 83% | 1007 hPa | - | - | - | - |
| 1777619436 | 30.56° C | 66% | 1007 hPa | - | - | - | - |
| 1777615842 | 31.67° C | 70% | 1008 hPa | - | - | - | - |
| 1777612254 | 31.67° C | 70% | 1010 hPa | - | - | - | - |
| 1777608635 | 31.67° C | 66% | 1011 hPa | - | - | - | - |
| 1777605035 | 30.56° C | 70% | 1011 hPa | - | - | - | - |
| 1777601436 | 30° C | 79% | 1011 hPa | - | - | - | - |
| 1777597854 | 28.89° C | 83% | 1010 hPa | - | - | - | - |
| 1777594232 | 25.56° C | 94% | 1010 hPa | - | - | - | - |
| 1777590636 | 25° C | 94% | 1009 hPa | - | - | - | - |
| 1777587035 | 25° C | 94% | 1008 hPa | - | - | - | - |
| 1777583454 | 25.56° C | 88% | 1008 hPa | - | - | - | - |
| 1777579836 | 25.56° C | 88% | 1009 hPa | - | - | - | - |
| 1777576235 | 25.56° C | 94% | 1009 hPa | - | - | - | - |
| 1777572635 | 25.56° C | 94% | 1010 hPa | - | - | - | - |
| 1777569052 | 26.67° C | 88% | 1011 hPa | - | - | - | - |
| 1777565434 | 26.67° C | 88% | 1011 hPa | - | - | - | - |
| 1777561835 | 26.67° C | 88% | 1011 hPa | - | - | - | - |
| 1777558234 | 26.67° C | 94% | 1010 hPa | - | - | - | - |
| 1777554651 | 26.67° C | 88% | 1009 hPa | - | - | - | - |
| 1777551034 | 26.67° C | 94% | 1008 hPa | - | - | - | - |
| 1777547435 | 27.78° C | 88% | 1007 hPa | - | - | - | - |
| 1777543834 | 28.89° C | 83% | 1006 hPa | - | - | - | - |
* Rain since midnight (hover to see other rain measurements)
** Current wind speed in m/s (hover to see current wind gust speed)